sensor_id;sensor_type;location;lat;lon;timestamp;pressure;altitude;pressure_sealevel;temperature;humidity
6096;BME280;25081;42.698;23.298;2023-04-27T00:01:57;94965.30;;;7.91;56.65
6096;BME280;25081;42.698;23.298;2023-04-27T00:04:08;94965.00;;;7.90;56.87
6096;BME280;25081;42.698;23.298;2023-04-27T00:06:19;94971.76;;;7.86;56.69
6096;BME280;25081;42.698;23.298;2023-04-27T00:08:29;94965.64;;;7.79;57.19
6096;BME280;25081;42.698;23.298;2023-04-27T00:10:40;94972.05;;;7.87;56.88
6096;BME280;25081;42.698;23.298;2023-04-27T00:12:50;94972.14;;;7.89;56.79
6096;BME280;25081;42.698;23.298;2023-04-27T00:15:01;94972.58;;;7.80;56.84
6096;BME280;25081;42.698;23.298;2023-04-27T00:17:11;94975.66;;;7.70;57.25
6096;BME280;25081;42.698;23.298;2023-04-27T00:19:22;94973.95;;;7.66;57.08
6096;BME280;25081;42.698;23.298;2023-04-27T00:21:32;94981.19;;;7.62;57.25
6096;BME280;25081;42.698;23.298;2023-04-27T00:23:43;94974.25;;;7.61;57.07
6096;BME280;25081;42.698;23.298;2023-04-27T00:25:53;94981.30;;;7.58;57.55
6096;BME280;25081;42.698;23.298;2023-04-27T00:28:04;94983.87;;;7.49;57.31
6096;BME280;25081;42.698;23.298;2023-04-27T00:30:15;94983.27;;;7.40;57.96
6096;BME280;25081;42.698;23.298;2023-04-27T00:32:26;94983.67;;;7.30;58.17
6096;BME280;25081;42.698;23.298;2023-04-27T00:34:37;94982.05;;;7.36;58.18
6096;BME280;25081;42.698;23.298;2023-04-27T00:36:50;94976.23;;;7.30;58.00
6096;BME280;25081;42.698;23.298;2023-04-27T00:39:02;94977.95;;;7.13;58.50
6096;BME280;25081;42.698;23.298;2023-04-27T00:41:13;94976.35;;;7.06;59.31
6096;BME280;25081;42.698;23.298;2023-04-27T00:43:24;94975.12;;;7.08;58.92
6096;BME280;25081;42.698;23.298;2023-04-27T00:45:40;94980.20;;;7.03;59.10
6096;BME280;25081;42.698;23.298;2023-04-27T00:50:09;94979.59;;;7.01;59.04
6096;BME280;25081;42.698;23.298;2023-04-27T00:52:20;94980.11;;;7.01;58.85
6096;BME280;25081;42.698;23.298;2023-04-27T00:54:30;94980.91;;;6.95;59.02
6096;BME280;25081;42.698;23.298;2023-04-27T00:56:41;94983.08;;;6.95;59.22
6096;BME280;25081;42.698;23.298;2023-04-27T00:58:51;94986.11;;;6.92;59.22
6096;BME280;25081;42.698;23.298;2023-04-27T01:01:02;94989.08;;;6.86;58.94
6096;BME280;25081;42.698;23.298;2023-04-27T01:03:13;94990.09;;;6.85;59.24
6096;BME280;25081;42.698;23.298;2023-04-27T01:05:25;94980.80;;;6.79;59.36
6096;BME280;25081;42.698;23.298;2023-04-27T01:07:38;94985.69;;;6.82;59.76
6096;BME280;25081;42.698;23.298;2023-04-27T01:09:48;94985.57;;;6.73;59.84
6096;BME280;25081;42.698;23.298;2023-04-27T01:11:59;94990.08;;;6.79;59.74
6096;BME280;25081;42.698;23.298;2023-04-27T01:14:10;94995.14;;;6.74;59.69
6096;BME280;25081;42.698;23.298;2023-04-27T01:16:20;94990.98;;;6.69;59.61
6096;BME280;25081;42.698;23.298;2023-04-27T01:18:31;94997.98;;;6.66;60.01
6096;BME280;25081;42.698;23.298;2023-04-27T01:20:41;94993.83;;;6.67;60.55
6096;BME280;25081;42.698;23.298;2023-04-27T01:22:53;94997.37;;;6.64;60.22
6096;BME280;25081;42.698;23.298;2023-04-27T01:25:04;94994.52;;;6.58;60.26
6096;BME280;25081;42.698;23.298;2023-04-27T01:27:15;95000.20;;;6.49;60.60
6096;BME280;25081;42.698;23.298;2023-04-27T01:29:26;94999.89;;;6.48;60.46
6096;BME280;25081;42.698;23.298;2023-04-27T01:31:36;95008.95;;;6.49;60.32
6096;BME280;25081;42.698;23.298;2023-04-27T01:33:47;95002.34;;;6.49;60.40
6096;BME280;25081;42.698;23.298;2023-04-27T01:35:57;95011.30;;;6.48;60.50
6096;BME280;25081;42.698;23.298;2023-04-27T01:38:08;95013.06;;;6.35;61.09
6096;BME280;25081;42.698;23.298;2023-04-27T01:40:19;95013.81;;;6.39;61.06
6096;BME280;25081;42.698;23.298;2023-04-27T01:42:29;95015.72;;;6.35;61.08
6096;BME280;25081;42.698;23.298;2023-04-27T01:44:40;95018.16;;;6.29;61.64
6096;BME280;25081;42.698;23.298;2023-04-27T01:46:50;95013.54;;;6.21;61.29
6096;BME280;25081;42.698;23.298;2023-04-27T01:49:01;95013.84;;;6.22;61.47
6096;BME280;25081;42.698;23.298;2023-04-27T01:51:11;95017.81;;;6.22;61.55
6096;BME280;25081;42.698;23.298;2023-04-27T01:53:22;95015.44;;;6.16;61.63
6096;BME280;25081;42.698;23.298;2023-04-27T01:55:32;95011.67;;;6.15;61.88
6096;BME280;25081;42.698;23.298;2023-04-27T01:57:43;95018.90;;;6.17;61.44
6096;BME280;25081;42.698;23.298;2023-04-27T01:59:53;95020.83;;;6.12;61.72
6096;BME280;25081;42.698;23.298;2023-04-27T02:02:04;95011.36;;;6.14;61.69
6096;BME280;25081;42.698;23.298;2023-04-27T02:04:14;95010.70;;;6.05;62.05
6096;BME280;25081;42.698;23.298;2023-04-27T02:06:25;95012.07;;;6.12;61.78
6096;BME280;25081;42.698;23.298;2023-04-27T02:08:35;95015.95;;;6.16;62.05
6096;BME280;25081;42.698;23.298;2023-04-27T02:10:46;95021.75;;;6.15;61.53
6096;BME280;25081;42.698;23.298;2023-04-27T02:12:57;95026.94;;;6.13;61.78
6096;BME280;25081;42.698;23.298;2023-04-27T02:15:09;95022.20;;;6.01;61.68
6096;BME280;25081;42.698;23.298;2023-04-27T02:17:20;95017.79;;;5.98;61.70
6096;BME280;25081;42.698;23.298;2023-04-27T02:19:30;95015.84;;;5.96;61.57
6096;BME280;25081;42.698;23.298;2023-04-27T02:21:41;95023.59;;;5.97;61.80
6096;BME280;25081;42.698;23.298;2023-04-27T02:23:52;95018.34;;;6.04;61.92
6096;BME280;25081;42.698;23.298;2023-04-27T02:26:02;95026.08;;;6.06;61.30
6096;BME280;25081;42.698;23.298;2023-04-27T02:28:13;95031.06;;;6.05;61.83
6096;BME280;25081;42.698;23.298;2023-04-27T02:30:23;95018.84;;;6.03;61.55
6096;BME280;25081;42.698;23.298;2023-04-27T02:32:34;95023.42;;;5.99;61.21
6096;BME280;25081;42.698;23.298;2023-04-27T02:34:45;95029.13;;;6.02;61.13
6096;BME280;25081;42.698;23.298;2023-04-27T02:36:55;95027.34;;;5.92;61.90
6096;BME280;25081;42.698;23.298;2023-04-27T02:39:06;95032.63;;;5.92;61.88
6096;BME280;25081;42.698;23.298;2023-04-27T02:41:16;95031.42;;;5.95;61.42
6096;BME280;25081;42.698;23.298;2023-04-27T02:43:27;95025.42;;;5.97;61.55
6096;BME280;25081;42.698;23.298;2023-04-27T02:45:38;95026.98;;;6.02;61.21
6096;BME280;25081;42.698;23.298;2023-04-27T02:47:48;95030.65;;;6.01;60.90
6096;BME280;25081;42.698;23.298;2023-04-27T02:49:59;95028.52;;;6.07;60.46
6096;BME280;25081;42.698;23.298;2023-04-27T02:52:09;95030.66;;;6.08;60.79
6096;BME280;25081;42.698;23.298;2023-04-27T02:54:20;95031.81;;;6.09;60.79
6096;BME280;25081;42.698;23.298;2023-04-27T02:56:30;95032.42;;;6.11;60.67
6096;BME280;25081;42.698;23.298;2023-04-27T02:58:41;95033.95;;;6.10;60.49
6096;BME280;25081;42.698;23.298;2023-04-27T03:00:54;95033.20;;;6.05;60.66
6096;BME280;25081;42.698;23.298;2023-04-27T03:03:05;95033.51;;;6.06;61.01
6096;BME280;25081;42.698;23.298;2023-04-27T03:05:16;95041.58;;;6.09;60.53
6096;BME280;25081;42.698;23.298;2023-04-27T03:07:26;95044.40;;;6.07;60.31
6096;BME280;25081;42.698;23.298;2023-04-27T03:09:37;95040.94;;;6.07;60.70
6096;BME280;25081;42.698;23.298;2023-04-27T03:11:47;95045.16;;;6.12;60.21
6096;BME280;25081;42.698;23.298;2023-04-27T03:13:58;95044.91;;;6.07;60.44
6096;BME280;25081;42.698;23.298;2023-04-27T03:16:10;95043.72;;;6.09;60.77
6096;BME280;25081;42.698;23.298;2023-04-27T03:18:20;95046.33;;;6.02;60.37
6096;BME280;25081;42.698;23.298;2023-04-27T03:20:31;95051.22;;;6.06;60.42
6096;BME280;25081;42.698;23.298;2023-04-27T03:22:42;95053.91;;;6.12;60.43
6096;BME280;25081;42.698;23.298;2023-04-27T03:24:53;95049.32;;;6.10;60.73
6096;BME280;25081;42.698;23.298;2023-04-27T03:27:04;95052.52;;;5.99;61.14
6096;BME280;25081;42.698;23.298;2023-04-27T03:29:14;95055.98;;;5.99;60.99
6096;BME280;25081;42.698;23.298;2023-04-27T03:31:25;95057.11;;;6.01;61.57
6096;BME280;25081;42.698;23.298;2023-04-27T03:33:35;95063.16;;;5.95;60.96
6096;BME280;25081;42.698;23.298;2023-04-27T03:35:52;95061.73;;;5.92;61.20
6096;BME280;25081;42.698;23.298;2023-04-27T03:38:01;95064.89;;;5.92;61.53
6096;BME280;25081;42.698;23.298;2023-04-27T03:40:13;95070.37;;;5.90;61.30
6096;BME280;25081;42.698;23.298;2023-04-27T03:42:24;95066.33;;;5.84;61.21
6096;BME280;25081;42.698;23.298;2023-04-27T03:44:35;95068.86;;;5.81;61.53
6096;BME280;25081;42.698;23.298;2023-04-27T03:46:45;95063.88;;;5.82;61.81
6096;BME280;25081;42.698;23.298;2023-04-27T03:48:56;95070.55;;;5.89;61.49
6096;BME280;25081;42.698;23.298;2023-04-27T03:51:06;95078.83;;;5.79;62.05
6096;BME280;25081;42.698;23.298;2023-04-27T03:53:17;95073.87;;;5.87;61.73
6096;BME280;25081;42.698;23.298;2023-04-27T03:55:27;95075.47;;;5.92;61.80
6096;BME280;25081;42.698;23.298;2023-04-27T03:57:38;95078.79;;;5.90;61.06
6096;BME280;25081;42.698;23.298;2023-04-27T03:59:49;95086.76;;;5.79;61.46
6096;BME280;25081;42.698;23.298;2023-04-27T04:01:59;95078.84;;;5.86;61.57
6096;BME280;25081;42.698;23.298;2023-04-27T04:04:10;95085.86;;;5.83;61.25
6096;BME280;25081;42.698;23.298;2023-04-27T04:06:20;95094.91;;;5.95;61.06
6096;BME280;25081;42.698;23.298;2023-04-27T04:08:31;95098.17;;;5.97;61.10
6096;BME280;25081;42.698;23.298;2023-04-27T04:10:41;95091.20;;;6.00;60.88
6096;BME280;25081;42.698;23.298;2023-04-27T04:12:53;95099.25;;;6.02;60.88
6096;BME280;25081;42.698;23.298;2023-04-27T04:15:07;95092.72;;;5.98;61.24
6096;BME280;25081;42.698;23.298;2023-04-27T04:17:18;95110.37;;;5.91;60.75
6096;BME280;25081;42.698;23.298;2023-04-27T04:19:28;95103.61;;;5.89;61.13
6096;BME280;25081;42.698;23.298;2023-04-27T04:21:39;95112.36;;;6.00;61.03
6096;BME280;25081;42.698;23.298;2023-04-27T04:23:50;95113.18;;;6.00;60.78
6096;BME280;25081;42.698;23.298;2023-04-27T04:26:00;95116.25;;;6.04;60.78
6096;BME280;25081;42.698;23.298;2023-04-27T04:28:11;95117.20;;;5.96;60.94
6096;BME280;25081;42.698;23.298;2023-04-27T04:30:21;95114.92;;;6.04;60.93
6096;BME280;25081;42.698;23.298;2023-04-27T04:32:32;95119.67;;;6.15;60.56
6096;BME280;25081;42.698;23.298;2023-04-27T04:34:43;95119.26;;;6.29;60.67
6096;BME280;25081;42.698;23.298;2023-04-27T04:36:53;95121.75;;;6.20;59.71
6096;BME280;25081;42.698;23.298;2023-04-27T04:39:04;95132.28;;;6.13;59.47
6096;BME280;25081;42.698;23.298;2023-04-27T04:41:15;95124.70;;;6.21;59.60
6096;BME280;25081;42.698;23.298;2023-04-27T04:43:25;95130.87;;;6.35;59.19
6096;BME280;25081;42.698;23.298;2023-04-27T04:45:36;95124.77;;;6.34;59.62
6096;BME280;25081;42.698;23.298;2023-04-27T04:47:47;95124.56;;;6.36;59.49
6096;BME280;25081;42.698;23.298;2023-04-27T04:49:58;95137.08;;;6.48;59.40
6096;BME280;25081;42.698;23.298;2023-04-27T04:52:09;95143.19;;;6.66;59.20
6096;BME280;25081;42.698;23.298;2023-04-27T04:54:19;95138.84;;;6.82;58.80
6096;BME280;25081;42.698;23.298;2023-04-27T04:56:30;95144.00;;;6.67;58.45
6096;BME280;25081;42.698;23.298;2023-04-27T04:58:41;95148.23;;;6.85;58.54
6096;BME280;25081;42.698;23.298;2023-04-27T05:00:51;95149.38;;;7.24;57.39
6096;BME280;25081;42.698;23.298;2023-04-27T05:03:02;95147.43;;;8.12;55.16
6096;BME280;25081;42.698;23.298;2023-04-27T05:05:13;95148.06;;;8.98;52.95
6096;BME280;25081;42.698;23.298;2023-04-27T05:07:23;95146.41;;;9.83;49.85
6096;BME280;25081;42.698;23.298;2023-04-27T05:09:34;95148.73;;;10.04;49.37
6096;BME280;25081;42.698;23.298;2023-04-27T05:11:44;95148.38;;;9.94;48.94
6096;BME280;25081;42.698;23.298;2023-04-27T05:13:55;95144.75;;;10.38;48.10
6096;BME280;25081;42.698;23.298;2023-04-27T05:16:06;95147.33;;;11.57;45.87
6096;BME280;25081;42.698;23.298;2023-04-27T05:18:17;95147.06;;;11.47;45.13
6096;BME280;25081;42.698;23.298;2023-04-27T05:20:27;95148.44;;;11.29;46.00
6096;BME280;25081;42.698;23.298;2023-04-27T05:22:38;95142.67;;;12.15;44.30
6096;BME280;25081;42.698;23.298;2023-04-27T05:24:48;95143.22;;;12.50;43.40
6096;BME280;25081;42.698;23.298;2023-04-27T05:26:59;95148.11;;;10.88;45.92
6096;BME280;25081;42.698;23.298;2023-04-27T05:29:09;95151.33;;;10.26;47.82
6096;BME280;25081;42.698;23.298;2023-04-27T05:31:20;95160.40;;;9.46;49.45
6096;BME280;25081;42.698;23.298;2023-04-27T05:33:31;95164.80;;;9.43;50.13
6096;BME280;25081;42.698;23.298;2023-04-27T05:35:41;95159.64;;;9.33;51.11
6096;BME280;25081;42.698;23.298;2023-04-27T05:37:52;95158.11;;;9.12;51.88
6096;BME280;25081;42.698;23.298;2023-04-27T05:40:02;95164.08;;;8.78;52.41
6096;BME280;25081;42.698;23.298;2023-04-27T05:42:13;95169.77;;;8.88;52.29
6096;BME280;25081;42.698;23.298;2023-04-27T05:44:24;95172.08;;;8.58;52.64
6096;BME280;25081;42.698;23.298;2023-04-27T05:46:35;95167.20;;;8.49;53.54
6096;BME280;25081;42.698;23.298;2023-04-27T05:48:48;95170.87;;;8.61;53.81
6096;BME280;25081;42.698;23.298;2023-04-27T05:51:02;95172.92;;;8.59;53.77
6096;BME280;25081;42.698;23.298;2023-04-27T05:53:12;95171.47;;;8.70;53.66
6096;BME280;25081;42.698;23.298;2023-04-27T05:55:26;95173.61;;;8.64;53.53
6096;BME280;25081;42.698;23.298;2023-04-27T05:57:37;95172.44;;;8.82;52.84
6096;BME280;25081;42.698;23.298;2023-04-27T05:59:46;95179.26;;;8.87;52.87
6096;BME280;25081;42.698;23.298;2023-04-27T06:01:57;95177.16;;;9.09;52.87
6096;BME280;25081;42.698;23.298;2023-04-27T06:04:07;95177.26;;;9.05;52.19
6096;BME280;25081;42.698;23.298;2023-04-27T06:06:18;95177.52;;;9.35;51.43
6096;BME280;25081;42.698;23.298;2023-04-27T06:08:29;95179.09;;;9.65;50.79
6096;BME280;25081;42.698;23.298;2023-04-27T06:10:40;95177.83;;;9.58;51.18
6096;BME280;25081;42.698;23.298;2023-04-27T06:12:50;95178.66;;;9.52;51.36
6096;BME280;25081;42.698;23.298;2023-04-27T06:15:01;95177.12;;;9.54;51.09
6096;BME280;25081;42.698;23.298;2023-04-27T06:17:11;95177.77;;;9.96;49.97
6096;BME280;25081;42.698;23.298;2023-04-27T06:19:22;95172.73;;;10.38;48.50
6096;BME280;25081;42.698;23.298;2023-04-27T06:21:33;95178.25;;;10.12;49.29
6096;BME280;25081;42.698;23.298;2023-04-27T06:23:44;95169.60;;;9.91;49.89
6096;BME280;25081;42.698;23.298;2023-04-27T06:25:54;95162.98;;;10.00;49.41
6096;BME280;25081;42.698;23.298;2023-04-27T06:28:05;95167.52;;;9.68;50.77
6096;BME280;25081;42.698;23.298;2023-04-27T06:30:16;95165.02;;;10.30;49.55
6096;BME280;25081;42.698;23.298;2023-04-27T06:32:26;95166.36;;;10.39;48.62
6096;BME280;25081;42.698;23.298;2023-04-27T06:34:37;95160.50;;;10.92;47.80
6096;BME280;25081;42.698;23.298;2023-04-27T06:36:47;95158.41;;;11.52;46.36
6096;BME280;25081;42.698;23.298;2023-04-27T06:38:58;95158.34;;;12.56;43.81
6096;BME280;25081;42.698;23.298;2023-04-27T06:41:08;95150.71;;;13.23;41.89
6096;BME280;25081;42.698;23.298;2023-04-27T06:43:19;95154.53;;;13.27;40.94
6096;BME280;25081;42.698;23.298;2023-04-27T06:45:30;95152.69;;;12.31;43.13
6096;BME280;25081;42.698;23.298;2023-04-27T06:47:40;95150.53;;;12.78;41.95
6096;BME280;25081;42.698;23.298;2023-04-27T06:49:51;95148.97;;;13.31;41.08
6096;BME280;25081;42.698;23.298;2023-04-27T06:52:01;95139.17;;;15.00;37.84
6096;BME280;25081;42.698;23.298;2023-04-27T06:54:12;95137.45;;;16.45;35.91
6096;BME280;25081;42.698;23.298;2023-04-27T06:56:22;95139.73;;;15.70;35.15
6096;BME280;25081;42.698;23.298;2023-04-27T06:58:33;95152.17;;;13.31;39.05
6096;BME280;25081;42.698;23.298;2023-04-27T07:00:43;95147.11;;;12.68;41.24
6096;BME280;25081;42.698;23.298;2023-04-27T07:02:54;95144.25;;;12.84;41.39
6096;BME280;25081;42.698;23.298;2023-04-27T07:05:06;95143.20;;;13.23;40.49
6096;BME280;25081;42.698;23.298;2023-04-27T07:07:16;95139.05;;;14.20;38.68
6096;BME280;25081;42.698;23.298;2023-04-27T07:09:27;95132.48;;;15.46;36.69
6096;BME280;25081;42.698;23.298;2023-04-27T07:11:38;95122.05;;;16.70;35.24
6096;BME280;25081;42.698;23.298;2023-04-27T07:13:48;95134.98;;;18.47;32.75
6096;BME280;25081;42.698;23.298;2023-04-27T07:15:59;95134.98;;;18.47;32.75
6096;BME280;25081;42.698;23.298;2023-04-27T07:18:09;95124.45;;;18.22;31.32
6096;BME280;25081;42.698;23.298;2023-04-27T07:20:20;95129.26;;;17.85;31.63
6096;BME280;25081;42.698;23.298;2023-04-27T07:22:30;95128.44;;;16.67;32.96
6096;BME280;25081;42.698;23.298;2023-04-27T07:24:41;95134.30;;;15.43;35.30
6096;BME280;25081;42.698;23.298;2023-04-27T07:26:51;95143.45;;;14.98;35.46
6096;BME280;25081;42.698;23.298;2023-04-27T07:29:02;95144.41;;;14.70;36.53
6096;BME280;25081;42.698;23.298;2023-04-27T07:31:12;95144.41;;;14.70;36.53
6096;BME280;25081;42.698;23.298;2023-04-27T07:33:23;95133.86;;;14.85;35.07
6096;BME280;25081;42.698;23.298;2023-04-27T07:35:34;95133.86;;;14.85;35.07
6096;BME280;25081;42.698;23.298;2023-04-27T07:37:44;95130.78;;;16.50;33.94
6096;BME280;25081;42.698;23.298;2023-04-27T07:39:55;95130.78;;;16.50;33.94
6096;BME280;25081;42.698;23.298;2023-04-27T07:42:06;95126.58;;;17.95;30.57
6096;BME280;25081;42.698;23.298;2023-04-27T07:44:17;95128.52;;;18.73;29.20
6096;BME280;25081;42.698;23.298;2023-04-27T07:46:27;95125.66;;;19.32;28.24
6096;BME280;25081;42.698;23.298;2023-04-27T07:48:39;95119.77;;;19.77;28.31
6096;BME280;25081;42.698;23.298;2023-04-27T07:50:50;95120.80;;;21.17;26.20
6096;BME280;25081;42.698;23.298;2023-04-27T07:53:00;95111.92;;;21.78;25.78
6096;BME280;25081;42.698;23.298;2023-04-27T07:55:11;95125.39;;;20.66;26.56
6096;BME280;25081;42.698;23.298;2023-04-27T07:57:21;95123.06;;;19.71;27.47
6096;BME280;25081;42.698;23.298;2023-04-27T07:59:32;95122.80;;;20.12;27.16
6096;BME280;25081;42.698;23.298;2023-04-27T08:01:42;95118.20;;;21.07;26.32
6096;BME280;25081;42.698;23.298;2023-04-27T08:03:53;95114.78;;;21.47;25.71
6096;BME280;25081;42.698;23.298;2023-04-27T08:06:04;95118.59;;;20.32;27.26
6096;BME280;25081;42.698;23.298;2023-04-27T08:08:14;95128.56;;;20.39;26.40
6096;BME280;25081;42.698;23.298;2023-04-27T08:10:25;95121.97;;;20.53;25.58
6096;BME280;25081;42.698;23.298;2023-04-27T08:12:36;95120.77;;;20.96;25.74
6096;BME280;25081;42.698;23.298;2023-04-27T08:14:46;95128.74;;;20.84;25.42
6096;BME280;25081;42.698;23.298;2023-04-27T08:16:57;95134.89;;;19.10;28.77
6096;BME280;25081;42.698;23.298;2023-04-27T08:19:14;95130.67;;;18.25;29.31
6096;BME280;25081;42.698;23.298;2023-04-27T08:21:27;95123.13;;;19.53;27.54
6096;BME280;25081;42.698;23.298;2023-04-27T08:23:37;95122.03;;;21.30;25.78
6096;BME280;25081;42.698;23.298;2023-04-27T08:25:48;95119.95;;;21.19;25.28
6096;BME280;25081;42.698;23.298;2023-04-27T08:27:58;95127.80;;;21.47;25.52
6096;BME280;25081;42.698;23.298;2023-04-27T08:30:11;95128.34;;;20.96;25.34
6096;BME280;25081;42.698;23.298;2023-04-27T08:32:22;95117.90;;;20.53;26.04
6096;BME280;25081;42.698;23.298;2023-04-27T08:34:32;95125.38;;;19.88;26.68
6096;BME280;25081;42.698;23.298;2023-04-27T08:36:43;95121.02;;;19.37;27.66
6096;BME280;25081;42.698;23.298;2023-04-27T08:41:17;95119.71;;;19.27;28.57
6096;BME280;25081;42.698;23.298;2023-04-27T08:43:32;95123.39;;;19.54;28.07
6096;BME280;25081;42.698;23.298;2023-04-27T08:45:47;95116.63;;;19.62;27.57
6096;BME280;25081;42.698;23.298;2023-04-27T08:47:57;95122.71;;;20.27;27.58
6096;BME280;25081;42.698;23.298;2023-04-27T08:50:10;95128.13;;;20.61;26.94
6096;BME280;25081;42.698;23.298;2023-04-27T08:52:20;95120.92;;;19.65;27.56
6096;BME280;25081;42.698;23.298;2023-04-27T08:54:31;95118.15;;;19.08;28.31
6096;BME280;25081;42.698;23.298;2023-04-27T08:56:41;95115.00;;;20.08;28.10
6096;BME280;25081;42.698;23.298;2023-04-27T08:58:53;95116.98;;;20.94;26.58
6096;BME280;25081;42.698;23.298;2023-04-27T09:01:06;95114.52;;;22.07;25.46
6096;BME280;25081;42.698;23.298;2023-04-27T09:03:22;95121.94;;;19.80;26.88
6096;BME280;25081;42.698;23.298;2023-04-27T09:05:32;95121.20;;;18.00;29.26
6096;BME280;25081;42.698;23.298;2023-04-27T09:07:43;95120.67;;;18.41;29.51
6096;BME280;25081;42.698;23.298;2023-04-27T09:10:01;95121.75;;;18.58;29.63
6096;BME280;25081;42.698;23.298;2023-04-27T09:12:16;95110.13;;;19.55;28.46
6096;BME280;25081;42.698;23.298;2023-04-27T09:14:26;95109.89;;;19.47;28.01
6096;BME280;25081;42.698;23.298;2023-04-27T09:16:37;95097.73;;;20.33;27.38
6096;BME280;25081;42.698;23.298;2023-04-27T09:18:47;95107.97;;;19.55;29.29
6096;BME280;25081;42.698;23.298;2023-04-27T09:20:59;95109.77;;;19.80;28.27
6096;BME280;25081;42.698;23.298;2023-04-27T09:23:09;95094.39;;;20.77;25.85
6096;BME280;25081;42.698;23.298;2023-04-27T09:25:29;95103.00;;;20.82;27.14
6096;BME280;25081;42.698;23.298;2023-04-27T09:27:39;95115.26;;;18.84;28.89
6096;BME280;25081;42.698;23.298;2023-04-27T09:29:50;95113.65;;;18.12;29.25
6096;BME280;25081;42.698;23.298;2023-04-27T09:32:00;95110.77;;;19.34;28.76
6096;BME280;25081;42.698;23.298;2023-04-27T09:34:11;95109.34;;;18.39;28.49
6096;BME280;25081;42.698;23.298;2023-04-27T09:36:21;95103.39;;;18.57;29.26
6096;BME280;25081;42.698;23.298;2023-04-27T09:38:32;95093.00;;;19.15;29.01
6096;BME280;25081;42.698;23.298;2023-04-27T09:40:42;95096.73;;;19.84;27.12
6096;BME280;25081;42.698;23.298;2023-04-27T09:42:54;95089.40;;;19.87;27.24
6096;BME280;25081;42.698;23.298;2023-04-27T09:45:06;95080.84;;;20.77;26.30
6096;BME280;25081;42.698;23.298;2023-04-27T09:47:16;95078.69;;;21.25;26.42
6096;BME280;25081;42.698;23.298;2023-04-27T09:49:27;95083.52;;;20.80;25.60
6096;BME280;25081;42.698;23.298;2023-04-27T09:51:37;95079.28;;;19.64;27.37
6096;BME280;25081;42.698;23.298;2023-04-27T09:53:50;95079.13;;;19.89;26.54
6096;BME280;25081;42.698;23.298;2023-04-27T09:56:06;95082.63;;;18.35;28.64
6096;BME280;25081;42.698;23.298;2023-04-27T09:58:31;95076.11;;;18.51;29.17
6096;BME280;25081;42.698;23.298;2023-04-27T10:00:47;95078.70;;;19.07;27.86
6096;BME280;25081;42.698;23.298;2023-04-27T10:03:04;95074.08;;;19.15;27.84
6096;BME280;25081;42.698;23.298;2023-04-27T10:05:36;95083.16;;;18.40;28.73
6096;BME280;25081;42.698;23.298;2023-04-27T10:07:45;95079.38;;;17.77;29.62
6096;BME280;25081;42.698;23.298;2023-04-27T10:09:59;95090.64;;;16.49;30.98
6096;BME280;25081;42.698;23.298;2023-04-27T10:12:17;95087.06;;;16.70;30.54
6096;BME280;25081;42.698;23.298;2023-04-27T10:14:27;95080.98;;;17.81;29.17
6096;BME280;25081;42.698;23.298;2023-04-27T10:16:44;95079.19;;;16.24;31.88
6096;BME280;25081;42.698;23.298;2023-04-27T10:18:55;95082.09;;;17.04;31.94
6096;BME280;25081;42.698;23.298;2023-04-27T10:21:12;95082.09;;;17.04;31.94
6096;BME280;25081;42.698;23.298;2023-04-27T10:23:26;95074.77;;;18.56;28.94
6096;BME280;25081;42.698;23.298;2023-04-27T10:25:38;95066.33;;;19.53;27.74
6096;BME280;25081;42.698;23.298;2023-04-27T10:27:53;95072.09;;;19.36;28.01
6096;BME280;25081;42.698;23.298;2023-04-27T10:30:08;95071.21;;;18.81;28.40
6096;BME280;25081;42.698;23.298;2023-04-27T10:32:22;95083.41;;;18.56;27.50
6096;BME280;25081;42.698;23.298;2023-04-27T10:34:32;95068.06;;;19.29;26.34
6096;BME280;25081;42.698;23.298;2023-04-27T10:36:42;95071.27;;;19.41;26.97
6096;BME280;25081;42.698;23.298;2023-04-27T10:38:57;95073.03;;;19.06;26.98
6096;BME280;25081;42.698;23.298;2023-04-27T10:41:12;95071.93;;;17.19;29.39
6096;BME280;25081;42.698;23.298;2023-04-27T10:43:23;95074.75;;;17.67;30.01
6096;BME280;25081;42.698;23.298;2023-04-27T10:45:29;95079.66;;;18.11;28.59
6096;BME280;25081;42.698;23.298;2023-04-27T10:47:40;95077.77;;;18.22;28.17
6096;BME280;25081;42.698;23.298;2023-04-27T10:49:52;95075.36;;;18.15;28.06
6096;BME280;25081;42.698;23.298;2023-04-27T10:52:03;95084.56;;;16.24;30.02
6096;BME280;25081;42.698;23.298;2023-04-27T10:54:13;95084.56;;;16.24;30.02
6096;BME280;25081;42.698;23.298;2023-04-27T10:56:24;95083.14;;;16.14;30.14
6096;BME280;25081;42.698;23.298;2023-04-27T10:58:34;95075.82;;;16.07;30.70
6096;BME280;25081;42.698;23.298;2023-04-27T11:00:45;95070.55;;;17.16;28.96
6096;BME280;25081;42.698;23.298;2023-04-27T11:02:56;95066.12;;;16.85;29.89
6096;BME280;25081;42.698;23.298;2023-04-27T11:05:15;95066.12;;;16.85;29.89
6096;BME280;25081;42.698;23.298;2023-04-27T11:07:26;95057.68;;;17.31;29.92
6096;BME280;25081;42.698;23.298;2023-04-27T11:09:36;95057.68;;;17.31;29.92
6096;BME280;25081;42.698;23.298;2023-04-27T11:11:47;95069.00;;;17.28;29.64
6096;BME280;25081;42.698;23.298;2023-04-27T11:13:57;95069.00;;;17.28;29.64
6096;BME280;25081;42.698;23.298;2023-04-27T11:16:08;95072.13;;;17.07;30.16
6096;BME280;25081;42.698;23.298;2023-04-27T11:18:18;95071.25;;;16.44;31.87
6096;BME280;25081;42.698;23.298;2023-04-27T11:20:29;95074.06;;;16.65;30.02
6096;BME280;25081;42.698;23.298;2023-04-27T11:22:46;94986.58;;;16.65;30.02
6096;BME280;25081;42.698;23.298;2023-04-27T11:24:56;95069.80;;;17.34;29.61
6096;BME280;25081;42.698;23.298;2023-04-27T11:27:07;95084.59;;;17.19;30.54
6096;BME280;25081;42.698;23.298;2023-04-27T11:29:17;95087.65;;;16.80;31.10
6096;BME280;25081;42.698;23.298;2023-04-27T11:31:37;95083.35;;;16.42;31.00
6096;BME280;25081;42.698;23.298;2023-04-27T11:33:46;95084.17;;;16.45;30.99
6096;BME280;25081;42.698;23.298;2023-04-27T11:35:49;95084.17;;;16.45;30.99
6096;BME280;25081;42.698;23.298;2023-04-27T11:37:59;95079.59;;;16.45;31.55
6096;BME280;25081;42.698;23.298;2023-04-27T11:40:13;95079.59;;;16.45;31.55
6096;BME280;25081;42.698;23.298;2023-04-27T11:42:24;95074.00;;;16.12;31.40
6096;BME280;25081;42.698;23.298;2023-04-27T11:44:34;95085.43;;;15.97;31.81